Time;durP1;ratioP1;P1;durP2;ratioP2;P2;SDS_P1;SDS_P2;PMS_P1;PMS_P2;Temp;Humidity;BMP_temperature;BMP_pressure;BME280_temperature;BME280_humidity;BME280_pressure;Samples;Min_cycle;Max_cycle;Signal;HPM_P1;HPM_P2
2023/04/13 00:00:47;;;;;;;55.90;40.80;;;;;;;4.39;100.00;97788.56;109392;1251;64325;-78
2023/04/13 00:03:19;;;;;;;49.10;39.40;;;;;;;4.39;100.00;97787.88;109517;1251;58079;-78
2023/04/13 00:05:47;;;;;;;51.90;40.70;;;;;;;4.38;100.00;97786.84;109526;1251;58180;-79
2023/04/13 00:08:13;;;;;;;49.60;38.60;;;;;;;4.38;100.00;97783.16;109561;1251;63961;-78
2023/04/13 00:10:40;;;;;;;48.70;38.60;;;;;;;4.39;100.00;97781.01;109577;1251;58531;-79
2023/04/13 00:13:09;;;;;;;48.10;37.20;;;;;;;4.39;100.00;97781.67;109474;1251;64072;-78
2023/04/13 00:15:40;;;;;;;46.90;37.20;;;;;;;4.39;100.00;97777.52;109459;1251;58473;-79
2023/04/13 00:18:09;;;;;;;47.00;37.00;;;;;;;4.37;100.00;97774.78;109504;1251;58124;-79
2023/04/13 00:20:36;;;;;;;46.30;37.30;;;;;;;4.37;100.00;97768.46;109483;1251;65294;-79
2023/04/13 00:23:03;;;;;;;48.70;37.90;;;;;;;4.37;100.00;97767.96;109539;1251;59376;-78
2023/04/13 00:25:29;;;;;;;51.70;39.10;;;;;;;4.36;100.00;97769.39;109506;1251;64503;-79
2023/04/13 00:27:55;;;;;;;49.00;37.80;;;;;;;4.36;100.00;97769.04;109536;1251;58139;-79
2023/04/13 00:30:22;;;;;;;46.40;36.90;;;;;;;4.37;100.00;97764.61;109566;1251;58256;-79
2023/04/13 00:32:49;;;;;;;47.60;37.00;;;;;;;4.36;100.00;97767.27;109553;1251;58139;-78
2023/04/13 00:35:23;;;;;;;47.20;36.10;;;;;;;4.34;100.00;97767.23;109535;1251;60055;-78
2023/04/13 00:37:51;;;;;;;44.90;35.40;;;;;;;4.34;100.00;97765.83;109515;1251;64024;-79
2023/04/13 00:40:18;;;;;;;47.60;35.90;;;;;;;4.33;100.00;97763.60;109516;1251;58144;-79
2023/04/13 00:42:46;;;;;;;44.30;35.40;;;;;;;4.32;100.00;97765.45;109293;1251;58449;-79
2023/04/13 00:45:14;;;;;;;46.50;35.10;;;;;;;4.32;100.00;97766.30;109530;1251;65224;-79
2023/04/13 00:47:42;;;;;;;46.70;35.10;;;;;;;4.32;100.00;97762.45;109570;1251;60576;-79
2023/04/13 00:50:08;;;;;;;51.20;39.80;;;;;;;4.31;100.00;97756.40;109054;1251;64110;-79
2023/04/13 00:52:38;;;;;;;47.00;35.80;;;;;;;4.29;100.00;97757.17;109510;1251;58250;-78
2023/04/13 00:55:06;;;;;;;45.30;35.70;;;;;;;4.28;100.00;97756.20;109537;1251;58401;-79
2023/04/13 00:57:34;;;;;;;48.80;37.30;;;;;;;4.26;100.00;97760.92;109274;1251;65219;-77
2023/04/13 01:00:08;;;;;;;51.50;39.20;;;;;;;4.22;100.00;97762.19;109425;1251;58921;-79
2023/04/13 01:02:35;;;;;;;51.10;39.40;;;;;;;4.18;100.00;97762.25;109441;1251;63011;-78
2023/04/13 01:05:03;;;;;;;53.10;39.40;;;;;;;4.15;100.00;97759.61;109524;1251;58188;-77
2023/04/13 01:07:46;;;;;;;52.60;40.20;;;;;;;4.12;100.00;97765.42;109546;1251;58278;-78
2023/04/13 01:10:54;;;;;;;54.20;41.30;;;;;;;4.08;100.00;97767.06;109479;1251;65409;-78
2023/04/13 01:13:29;;;;;;;54.10;39.50;;;;;;;4.05;100.00;97772.87;109546;1251;60138;-78
2023/04/13 01:16:04;;;;;;;53.70;39.10;;;;;;;4.02;100.00;97776.20;109486;1251;62846;-78
2023/04/13 01:18:34;;;;;;;53.20;40.40;;;;;;;4.00;100.00;97774.45;109505;1251;58138;-78
2023/04/13 01:21:03;;;;;;;55.50;41.50;;;;;;;3.97;100.00;97774.42;109415;1251;58099;-78
2023/04/13 01:23:55;;;;;;;55.80;42.20;;;;;;;3.94;100.00;97778.80;109554;1251;65215;-78
2023/04/13 01:26:21;;;;;;;55.10;41.40;;;;;;;3.92;100.00;97777.70;108522;1254;1002970;-78
2023/04/13 01:28:50;;;;;;;52.00;40.50;;;;;;;3.91;100.00;97774.27;109297;1254;63972;-78
2023/04/13 01:31:17;;;;;;;59.10;42.90;;;;;;;3.90;100.00;97774.15;109279;1254;58168;-78
2023/04/13 01:33:46;;;;;;;51.40;41.40;;;;;;;3.90;100.00;97773.59;109168;1254;58238;-79
2023/04/13 01:36:13;;;;;;;61.10;43.00;;;;;;;3.92;100.00;97776.45;109262;1254;64948;-78
2023/04/13 01:38:39;;;;;;;60.00;43.50;;;;;;;3.92;100.00;97779.27;109260;1257;60086;-79
2023/04/13 01:41:07;;;;;;;60.90;44.90;;;;;;;3.92;100.00;97781.89;109255;1254;63008;-79
2023/04/13 01:43:34;;;;;;;57.80;44.30;;;;;;;3.94;100.00;97783.38;109231;1254;58280;-78
2023/04/13 01:46:05;;;;;;;56.20;44.50;;;;;;;3.92;100.00;97780.30;109272;1255;58179;-78
2023/04/13 01:48:41;;;;;;;58.80;46.30;;;;;;;3.90;100.00;97778.86;108953;1254;63958;-78
2023/04/13 01:51:31;;;;;;;59.50;43.90;;;;;;;3.88;100.00;97779.51;108916;1254;60353;-79
2023/04/13 01:54:19;;;;;;;56.50;43.60;;;;;;;3.88;100.00;97779.88;109090;1254;62833;-79
2023/04/13 01:56:47;;;;;;;55.10;43.00;;;;;;;3.87;100.00;97775.02;109313;1251;58990;-78
2023/04/13 01:59:15;;;;;;;63.10;44.80;;;;;;;3.87;100.00;97774.83;109525;1251;58271;-77
2023/04/13 02:01:41;;;;;;;58.70;42.20;;;;;;;3.88;100.00;97774.46;109546;1251;65236;-77
2023/04/13 02:04:08;;;;;;;56.70;41.80;;;;;;;3.89;100.00;97773.48;109434;1251;59912;-79
2023/04/13 02:06:36;;;;;;;56.50;40.30;;;;;;;3.91;100.00;97777.92;109526;1250;64226;-78
2023/04/13 02:09:05;;;;;;;54.40;42.40;;;;;;;3.92;100.00;97775.59;109525;1251;58250;-79
2023/04/13 02:11:33;;;;;;;60.50;43.50;;;;;;;3.93;100.00;97780.27;109485;1251;58081;-79
2023/04/13 02:14:01;;;;;;;63.20;45.40;;;;;;;3.96;100.00;97782.36;109387;1251;64013;-78
2023/04/13 02:16:27;;;;;;;62.40;46.50;;;;;;;3.99;100.00;97783.25;109579;1251;60030;-78
2023/04/13 02:18:55;;;;;;;59.30;43.90;;;;;;;4.02;100.00;97783.64;109535;1251;58342;-78
2023/04/13 02:21:22;;;;;;;59.70;45.80;;;;;;;4.05;100.00;97781.88;109501;1251;58191;-78
2023/04/13 02:23:48;;;;;;;59.60;46.30;;;;;;;4.08;100.00;97777.98;109512;1251;58364;-79
2023/04/13 02:26:16;;;;;;;61.80;46.30;;;;;;;4.12;100.00;97777.04;109549;1250;65396;-79
2023/04/13 02:28:42;;;;;;;58.50;44.40;;;;;;;4.15;100.00;97776.33;109568;1251;60082;-77
2023/04/13 02:31:09;;;;;;;59.80;44.70;;;;;;;4.18;100.00;97772.08;109521;1251;58333;-78
2023/04/13 02:33:36;;;;;;;59.20;45.20;;;;;;;4.21;100.00;97771.96;109526;1251;58127;-79
2023/04/13 02:36:03;;;;;;;60.70;45.30;;;;;;;4.22;100.00;97772.92;109531;1251;58243;-79
2023/04/13 02:38:30;;;;;;;60.00;43.50;;;;;;;4.22;100.00;97766.04;109529;1251;63999;-79
2023/04/13 02:40:59;;;;;;;59.40;43.10;;;;;;;4.23;100.00;97771.08;109516;1250;60125;-78
2023/04/13 02:43:26;;;;;;;59.40;44.70;;;;;;;4.23;100.00;97772.33;109534;1251;64045;-79
2023/04/13 02:45:52;;;;;;;58.40;44.50;;;;;;;4.23;100.00;97766.71;109469;1251;58225;-79
2023/04/13 02:48:20;;;;;;;57.40;46.10;;;;;;;4.23;100.00;97768.77;109503;1251;58176;-79
2023/04/13 02:50:47;;;;;;;60.70;46.00;;;;;;;4.23;100.00;97766.71;109540;1251;63997;-79
2023/04/13 02:53:15;;;;;;;58.60;43.50;;;;;;;4.21;100.00;97761.19;109552;1251;59278;-79
2023/04/13 02:55:42;;;;;;;57.20;43.10;;;;;;;4.18;100.00;97762.27;109520;1251;64039;-79
2023/04/13 02:58:10;;;;;;;57.50;45.20;;;;;;;4.14;100.00;97763.17;109534;1251;58187;-79
2023/04/13 03:00:37;;;;;;;55.10;42.70;;;;;;;4.12;100.00;97762.98;109517;1251;58185;-80
2023/04/13 03:03:05;;;;;;;51.70;40.30;;;;;;;4.08;100.00;97764.63;109479;1251;63867;-76
2023/04/13 03:05:32;;;;;;;54.10;41.60;;;;;;;4.04;100.00;97761.34;109531;1251;58602;-77
2023/04/13 03:07:59;;;;;;;55.00;40.90;;;;;;;4.01;100.00;97761.35;109562;1251;64180;-79
2023/04/13 03:10:25;;;;;;;58.10;42.40;;;;;;;3.99;100.00;97760.91;109468;1251;58330;-76
2023/04/13 03:12:52;;;;;;;57.90;43.40;;;;;;;3.98;100.00;97760.10;109458;1252;58198;-77
2023/04/13 03:15:19;;;;;;;53.00;39.60;;;;;;;3.97;100.00;97761.21;109544;1251;65284;-78
2023/04/13 03:17:46;;;;;;;48.50;38.20;;;;;;;3.96;100.00;97762.18;109553;1251;60164;-78
2023/04/13 03:20:15;;;;;;;52.90;39.60;;;;;;;3.94;100.00;97764.18;109292;1251;62735;-77
2023/04/13 03:22:44;;;;;;;46.50;36.70;;;;;;;3.93;100.00;97764.83;109478;1251;58191;-78
2023/04/13 03:25:14;;;;;;;53.60;41.50;;;;;;;3.91;100.00;97767.55;109530;1251;58196;-78
2023/04/13 03:27:40;;;;;;;48.00;36.00;;;;;;;3.89;100.00;97763.61;109505;1251;65337;-77
2023/04/13 03:30:07;;;;;;;47.10;35.70;;;;;;;3.88;100.00;97763.00;109553;1250;58856;-78
2023/04/13 03:32:34;;;;;;;45.30;34.50;;;;;;;3.88;100.00;97764.95;109552;1251;62828;-78
2023/04/13 03:35:01;;;;;;;45.40;35.90;;;;;;;3.90;100.00;97765.55;109565;1251;58220;-78
2023/04/13 03:37:31;;;;;;;44.20;35.70;;;;;;;3.91;100.00;97761.73;109543;1251;58442;-77
2023/04/13 03:39:57;;;;;;;45.90;35.20;;;;;;;3.93;100.00;97759.38;109551;1251;65226;-77
2023/04/13 03:42:24;;;;;;;44.60;35.70;;;;;;;3.95;100.00;97762.77;109503;1250;59825;-78
2023/04/13 03:44:51;;;;;;;46.10;36.30;;;;;;;3.96;100.00;97768.81;109544;1250;64083;-77
2023/04/13 03:47:17;;;;;;;47.30;36.30;;;;;;;3.97;100.00;97765.25;109530;1251;58222;-78
2023/04/13 03:49:44;;;;;;;47.30;35.90;;;;;;;4.00;100.00;97765.11;109532;1251;58421;-78
2023/04/13 03:52:10;;;;;;;46.40;35.10;;;;;;;4.03;100.00;97765.45;109518;1251;65230;-78
2023/04/13 03:54:38;;;;;;;43.50;33.50;;;;;;;4.06;100.00;97766.16;109546;1251;58246;-77
2023/04/13 03:57:05;;;;;;;46.90;34.50;;;;;;;4.10;100.00;97764.34;109514;1251;62853;-77
2023/04/13 03:59:31;;;;;;;46.70;36.70;;;;;;;4.16;100.00;97766.40;109526;1251;58174;-78
2023/04/13 04:01:58;;;;;;;52.20;37.50;;;;;;;4.22;100.00;97766.39;109588;1251;58142;-79
2023/04/13 04:04:25;;;;;;;42.90;35.30;;;;;;;4.29;100.00;97766.33;109549;1250;65250;-78
2023/04/13 04:06:52;;;;;;;44.60;36.30;;;;;;;4.35;100.00;97765.23;109541;1250;60583;-78
2023/04/13 04:09:19;;;;;;;42.20;34.40;;;;;;;4.40;100.00;97762.67;109512;1251;64038;-78
2023/04/13 04:11:46;;;;;;;41.70;33.80;;;;;;;4.45;100.00;97761.65;109505;1251;58278;-78
2023/04/13 04:14:12;;;;;;;44.80;34.40;;;;;;;4.51;100.00;97758.30;109550;1251;58096;-79
2023/04/13 04:16:39;;;;;;;42.40;34.00;;;;;;;4.60;100.00;97760.75;109558;1251;58801;-77
2023/04/13 04:19:06;;;;;;;44.30;32.90;;;;;;;4.75;100.00;97763.14;109556;1251;58944;-78
2023/04/13 04:21:35;;;;;;;43.10;34.30;;;;;;;4.85;100.00;97766.90;109532;1251;62955;-78
2023/04/13 04:24:04;;;;;;;46.60;35.30;;;;;;;4.94;100.00;97768.10;109472;1251;58162;-78
2023/04/13 04:26:31;;;;;;;44.40;34.00;;;;;;;5.03;100.00;97768.57;109097;1251;58469;-79
2023/04/13 04:29:01;;;;;;;46.90;35.90;;;;;;;5.10;100.00;97768.27;109539;1251;58782;-78
2023/04/13 04:31:34;;;;;;;53.00;36.20;;;;;;;5.17;100.00;97771.38;109598;1251;60189;-79
2023/04/13 04:34:01;;;;;;;46.20;36.10;;;;;;;5.23;100.00;97770.41;109526;1251;62846;-79
2023/04/13 04:36:27;;;;;;;48.40;36.80;;;;;;;5.27;100.00;97768.23;109448;1251;58146;-78
2023/04/13 04:38:56;;;;;;;47.40;35.70;;;;;;;5.30;100.00;97764.55;109542;1251;58119;-79
2023/04/13 04:41:24;;;;;;;45.30;37.70;;;;;;;5.34;100.00;97763.40;109531;1251;65631;-79
2023/04/13 04:43:51;;;;;;;48.20;37.80;;;;;;;5.37;100.00;97763.36;109589;1251;60142;-78
2023/04/13 04:46:17;;;;;;;48.70;37.90;;;;;;;5.40;100.00;97761.39;109532;1250;64475;-81
2023/04/13 04:48:46;;;;;;;51.70;39.90;;;;;;;5.45;100.00;97763.39;109412;1251;58148;-77
2023/04/13 04:51:12;;;;;;;46.90;39.20;;;;;;;5.51;100.00;97762.23;109563;1251;58517;-79
2023/04/13 04:53:39;;;;;;;47.10;38.50;;;;;;;5.57;100.00;97762.02;109534;1250;64018;-79
2023/04/13 04:56:06;;;;;;;50.90;39.20;;;;;;;5.71;100.00;97761.09;109504;1250;58325;-79
2023/04/13 04:58:32;;;;;;;44.50;37.50;;;;;;;5.97;100.00;97761.98;109579;1251;64062;-79
2023/04/13 05:00:59;;;;;;;44.80;37.80;;;;;;;5.98;100.00;97767.27;109531;1251;58509;-79
2023/04/13 05:03:25;;;;;;;41.80;36.10;;;;;;;5.96;100.00;97772.15;109567;1251;58121;-79
2023/04/13 05:05:52;;;;;;;50.10;38.80;;;;;;;6.40;100.00;97765.77;109592;1251;65125;-77
2023/04/13 05:08:18;;;;;;;44.80;36.90;;;;;;;7.08;100.00;97769.58;109534;1251;58121;-77
2023/04/13 05:10:45;;;;;;;43.90;34.80;;;;;;;7.81;100.00;97761.86;109548;1251;58399;-78
2023/04/13 05:13:12;;;;;;;38.70;34.30;;;;;;;8.49;100.00;97765.18;109518;1251;58241;-78
2023/04/13 05:15:38;;;;;;;38.90;33.10;;;;;;;9.07;100.00;97766.12;109516;1251;58279;-78
2023/04/13 05:18:05;;;;;;;37.30;32.40;;;;;;;9.36;100.00;97763.60;109311;1251;63632;-79
2023/04/13 05:20:33;;;;;;;35.20;31.40;;;;;;;9.73;100.00;97767.98;109582;1251;60167;-78
2023/04/13 05:23:00;;;;;;;36.60;31.70;;;;;;;10.13;100.00;97769.98;109525;1251;63736;-78
2023/04/13 05:25:26;;;;;;;35.90;31.90;;;;;;;10.43;100.00;97767.45;109548;1251;58159;-78
2023/04/13 05:27:53;;;;;;;32.00;28.80;;;;;;;10.66;100.00;97765.24;109461;1252;58448;-79
2023/04/13 05:30:20;;;;;;;33.70;28.50;;;;;;;10.74;100.00;97771.17;109471;1251;58114;-78
2023/04/13 05:32:46;;;;;;;31.80;27.60;;;;;;;10.81;100.00;97774.64;109516;1252;58992;-79
2023/04/13 05:35:13;;;;;;;30.70;27.00;;;;;;;10.97;100.00;97775.85;109479;1252;64016;-78
2023/04/13 05:37:39;;;;;;;30.50;27.20;;;;;;;11.24;100.00;97779.39;109366;1252;58281;-77
2023/04/13 05:40:10;;;;;;;29.20;25.90;;;;;;;11.41;100.00;97782.95;109467;1252;58184;-78
2023/04/13 05:42:37;;;;;;;29.10;26.10;;;;;;;11.56;100.00;97778.59;109484;1252;65228;-78
2023/04/13 05:45:08;;;;;;;28.10;25.00;;;;;;;11.75;100.00;97781.70;109500;1252;58988;-78
2023/04/13 05:47:37;;;;;;;28.80;25.80;;;;;;;11.95;100.00;97778.65;109453;1252;62892;-78
2023/04/13 05:50:03;;;;;;;28.30;25.40;;;;;;;12.05;100.00;97775.25;109117;1252;58274;-78
2023/04/13 05:52:30;;;;;;;29.60;26.50;;;;;;;12.04;100.00;97773.89;109473;1252;59049;-78
2023/04/13 05:54:58;;;;;;;30.70;26.60;;;;;;;11.94;100.00;97774.85;109438;1252;65209;-78
2023/04/13 05:57:25;;;;;;;37.60;28.00;;;;;;;11.75;100.00;97777.04;109171;1253;60122;-78
2023/04/13 05:59:52;;;;;;;29.90;26.70;;;;;;;11.67;100.00;97774.23;109360;1252;64055;-78
2023/04/13 06:02:19;;;;;;;32.30;26.60;;;;;;;11.69;100.00;97775.52;109452;1251;58199;-78
2023/04/13 06:04:46;;;;;;;29.00;25.80;;;;;;;11.80;100.00;97774.12;109503;1252;58206;-78
2023/04/13 06:07:15;;;;;;;30.20;25.50;;;;;;;11.90;100.00;97771.27;109471;1252;58256;-77
2023/04/13 06:09:42;;;;;;;28.80;25.70;;;;;;;12.05;100.00;97774.35;109509;1252;60169;-78
2023/04/13 06:12:09;;;;;;;27.80;24.80;;;;;;;12.22;100.00;97770.46;109489;1251;64128;-80
2023/04/13 06:14:35;;;;;;;30.70;26.30;;;;;;;12.42;100.00;97769.08;109461;1252;58138;-79
2023/04/13 06:17:02;;;;;;;29.60;26.30;;;;;;;12.62;100.00;97774.52;109528;1252;58524;-79
2023/04/13 06:19:28;;;;;;;28.70;25.50;;;;;;;12.84;100.00;97777.80;109454;1251;58063;-79
2023/04/13 06:21:55;;;;;;;27.80;24.90;;;;;;;13.06;100.00;97774.21;109487;1251;58227;-79
2023/04/13 06:24:21;;;;;;;28.60;24.60;;;;;;;13.30;99.87;97779.08;109523;1252;64079;-78
2023/04/13 06:26:48;;;;;;;40.60;24.90;;;;;;;13.52;99.24;97776.44;109468;1252;58246;-79
2023/04/13 06:29:14;;;;;;;28.10;25.00;;;;;;;13.87;98.03;97779.19;109368;1251;58510;-78
2023/04/13 06:31:41;;;;;;;28.30;24.40;;;;;;;14.28;95.80;97780.91;109374;1253;58295;-79
2023/04/13 06:34:07;;;;;;;70.90;30.20;;;;;;;14.36;93.13;97781.37;109451;1252;58270;-79
2023/04/13 06:36:33;;;;;;;27.10;24.00;;;;;;;14.24;92.78;97784.19;109440;1252;58263;-79
2023/04/13 06:39:00;;;;;;;25.20;22.60;;;;;;;14.16;92.34;97785.57;109444;1252;58301;-79
2023/04/13 06:41:26;;;;;;;36.20;24.70;;;;;;;14.08;91.93;97786.95;109496;1252;58150;-79
2023/04/13 06:43:53;;;;;;;27.00;24.40;;;;;;;14.01;91.45;97785.39;109470;1252;64531;-79
2023/04/13 06:46:21;;;;;;;26.30;23.20;;;;;;;13.97;90.43;97784.78;109473;1252;60096;-78
2023/04/13 06:48:47;;;;;;;25.50;22.90;;;;;;;13.88;89.74;97784.80;109434;1251;64057;-78
2023/04/13 06:51:14;;;;;;;26.00;23.30;;;;;;;13.74;89.30;97784.63;109457;1251;58222;-79
2023/04/13 06:53:40;;;;;;;27.10;22.80;;;;;;;13.63;89.45;97786.02;109457;1252;58224;-79
2023/04/13 06:56:07;;;;;;;30.40;26.00;;;;;;;13.55;89.31;97784.64;109366;1253;64002;-79
2023/04/13 06:58:35;;;;;;;29.60;26.50;;;;;;;13.47;88.80;97781.96;109534;1251;58940;-79
2023/04/13 07:01:02;;;;;;;28.20;25.10;;;;;;;13.36;87.45;97780.34;109481;1252;64016;-78
2023/04/13 07:03:29;;;;;;;31.30;27.50;;;;;;;13.23;87.08;97778.66;109440;1252;58513;-79
2023/04/13 07:05:55;;;;;;;33.30;27.10;;;;;;;13.19;88.40;97777.15;109468;1252;58264;-79
2023/04/13 07:08:22;;;;;;;31.90;26.00;;;;;;;13.19;88.35;97777.24;109459;1251;58199;-79
2023/04/13 07:10:53;;;;;;;29.00;24.80;;;;;;;13.18;88.07;97778.04;109193;1252;59814;-79
2023/04/13 07:13:20;;;;;;;30.40;25.20;;;;;;;13.22;88.20;97774.80;109419;1252;62635;-79
2023/04/13 07:15:47;;;;;;;29.50;25.90;;;;;;;13.34;88.59;97779.02;109470;1252;58140;-79
2023/04/13 07:18:13;;;;;;;29.80;26.60;;;;;;;13.40;88.33;97781.52;109467;1252;58069;-79
2023/04/13 07:20:40;;;;;;;28.00;25.20;;;;;;;13.38;88.38;97782.44;109473;1252;58495;-79
2023/04/13 07:23:07;;;;;;;29.70;26.50;;;;;;;13.35;87.76;97783.41;109500;1251;60277;-79
2023/04/13 07:25:34;;;;;;;27.00;24.10;;;;;;;13.34;87.55;97783.67;109460;1255;62830;-79
2023/04/13 07:28:01;;;;;;;28.30;25.30;;;;;;;13.31;86.64;97785.05;109438;1252;58220;-79
2023/04/13 07:30:27;;;;;;;28.70;25.70;;;;;;;13.30;87.09;97784.29;109466;1252;58131;-78
2023/04/13 07:32:54;;;;;;;25.60;22.90;;;;;;;13.30;85.68;97783.70;109497;1252;65295;-79
2023/04/13 07:35:20;;;;;;;34.00;24.50;;;;;;;13.26;85.03;97782.89;109190;1252;60172;-78
2023/04/13 07:37:48;;;;;;;26.00;22.50;;;;;;;13.42;86.13;97781.55;109377;1252;65056;-78
2023/04/13 07:40:15;;;;;;;28.30;21.40;;;;;;;13.58;85.72;97781.52;109426;1252;58656;-78
2023/04/13 07:42:44;;;;;;;24.10;21.60;;;;;;;13.74;85.75;97776.77;109375;1252;58313;-78
2023/04/13 07:45:10;;;;;;;23.90;20.90;;;;;;;13.91;86.19;97775.05;109447;1251;65199;-77
2023/04/13 07:47:37;;;;;;;24.90;20.60;;;;;;;13.98;83.82;97779.27;109484;1252;59017;-78
2023/04/13 07:50:05;;;;;;;24.70;21.90;;;;;;;13.92;83.33;97779.55;109195;1251;58217;-78
2023/04/13 07:52:31;;;;;;;25.60;20.60;;;;;;;14.03;83.22;97781.34;109205;1255;59170;-78
2023/04/13 07:55:00;;;;;;;23.20;18.80;;;;;;;14.17;82.42;97785.69;109122;1256;58234;-79
2023/04/13 07:57:27;;;;;;;24.20;20.00;;;;;;;14.21;81.45;97780.63;109224;1255;65202;-78
2023/04/13 07:59:54;;;;;;;23.10;20.20;;;;;;;14.28;81.80;97780.06;109214;1255;58831;-79
2023/04/13 08:02:21;;;;;;;19.30;17.20;;;;;;;14.39;81.66;97777.81;109216;1255;65219;-78
2023/04/13 08:04:48;;;;;;;19.00;16.80;;;;;;;14.49;80.23;97775.41;109207;1255;58604;-79
2023/04/13 08:07:14;;;;;;;19.90;16.00;;;;;;;14.65;80.13;97775.04;109251;1254;58301;-79
2023/04/13 08:09:41;;;;;;;17.90;15.00;;;;;;;14.91;79.49;97773.09;109225;1255;65207;-79
2023/04/13 08:12:08;;;;;;;19.60;15.50;;;;;;;15.11;78.06;97773.10;109241;1255;60208;-79
2023/04/13 08:14:36;;;;;;;17.90;14.80;;;;;;;15.24;77.10;97773.14;109196;1255;62785;-79
2023/04/13 08:17:05;;;;;;;19.10;14.90;;;;;;;15.42;76.82;97775.55;109235;1255;58176;-78
2023/04/13 08:19:32;;;;;;;15.90;14.20;;;;;;;15.63;75.95;97773.16;109222;1255;58204;-78
2023/04/13 08:21:59;;;;;;;16.40;14.70;;;;;;;15.79;75.35;97768.82;109231;1255;65198;-78
2023/04/13 08:24:26;;;;;;;19.60;14.80;;;;;;;15.89;73.93;97766.31;109206;1254;58233;-79
2023/04/13 08:26:53;;;;;;;16.60;13.90;;;;;;;15.91;73.12;97769.48;109094;1254;64032;-78
2023/04/13 08:29:22;;;;;;;13.00;11.60;;;;;;;15.89;72.08;97770.00;109108;1255;58270;-80
2023/04/13 08:31:50;;;;;;;13.80;11.80;;;;;;;15.99;72.01;97770.25;109501;1251;58892;-80
2023/04/13 08:34:17;;;;;;;14.90;11.30;;;;;;;16.15;72.02;97773.44;109403;1253;65244;-77
2023/04/13 08:36:47;;;;;;;13.10;10.20;;;;;;;16.38;72.25;97776.15;109230;1252;58913;-78
2023/04/13 08:39:13;;;;;;;13.40;10.60;;;;;;;16.65;70.21;97777.26;109410;1252;64090;-78
2023/04/13 08:41:45;;;;;;;12.20;10.30;;;;;;;16.76;68.53;97778.17;109490;1251;58208;-77
2023/04/13 08:44:15;;;;;;;17.30;9.90;;;;;;;16.85;67.52;97776.98;109370;1253;58189;-78
2023/04/13 08:46:44;;;;;;;11.20;9.20;;;;;;;16.90;67.66;97778.28;109208;1253;65309;-77
2023/04/13 08:49:11;;;;;;;10.80;9.70;;;;;;;16.97;68.06;97775.51;109486;1252;58934;-77
2023/04/13 08:51:38;;;;;;;12.20;10.20;;;;;;;17.04;67.79;97773.96;109485;1251;62791;-77
2023/04/13 08:54:05;;;;;;;11.90;10.00;;;;;;;17.14;66.89;97779.88;109462;1253;58113;-77
2023/04/13 08:56:33;;;;;;;13.00;10.50;;;;;;;17.26;66.41;97780.81;109300;1251;58385;-78
2023/04/13 08:59:05;;;;;;;12.40;11.10;;;;;;;17.47;66.17;97773.77;109488;1252;63990;-77
2023/04/13 09:01:35;;;;;;;12.70;9.10;;;;;;;17.75;64.46;97777.61;109470;1252;59027;-77
2023/04/13 09:04:13;;;;;;;10.90;9.70;;;;;;;17.83;63.04;97775.88;109507;1252;63735;-77
2023/04/13 09:06:41;;;;;;;10.50;9.40;;;;;;;17.94;63.04;97773.31;109451;1252;58139;-77
2023/04/13 09:09:10;;;;;;;11.20;9.30;;;;;;;18.06;62.84;97770.57;109467;1252;58137;-78
2023/04/13 09:11:36;;;;;;;10.60;8.20;;;;;;;18.17;62.52;97767.27;109378;1253;64014;-77
2023/04/13 09:14:04;;;;;;;10.70;8.60;;;;;;;18.35;61.63;97764.60;109404;1252;60536;-77
2023/04/13 09:16:40;;;;;;;7.60;5.50;;;;;;;18.38;59.07;97763.63;109535;1252;62823;-76
2023/04/13 09:19:08;;;;;;;5.20;4.70;;;;;;;18.28;56.98;97764.31;109488;1252;58473;-77
2023/04/13 09:21:39;;;;;;;5.90;4.00;;;;;;;18.02;55.15;97761.83;109523;1251;58219;-77
2023/04/13 09:24:12;;;;;;;11.40;4.40;;;;;;;17.91;54.00;97763.13;109469;1252;64006;-77
2023/04/13 09:26:43;;;;;;;7.30;5.60;;;;;;;17.84;53.55;97762.46;109372;1252;145221;-77
2023/04/13 09:29:14;;;;;;;6.00;5.30;;;;;;;17.86;54.11;97762.86;109344;1253;62544;-77
2023/04/13 09:31:41;;;;;;;9.80;6.30;;;;;;;17.86;53.40;97759.05;109464;1252;58145;-77
2023/04/13 09:34:08;;;;;;;6.60;5.10;;;;;;;17.79;53.01;97757.84;109234;1252;58884;-77
2023/04/13 09:36:36;;;;;;;9.00;4.90;;;;;;;17.80;53.84;97756.72;109344;1253;63684;-75
2023/04/13 09:39:03;;;;;;;5.60;5.00;;;;;;;17.91;54.13;97756.12;109398;1253;58682;-77
2023/04/13 09:41:37;;;;;;;6.80;5.20;;;;;;;17.99;54.48;97757.10;109200;1253;64108;-78
2023/04/13 09:44:19;;;;;;;10.70;5.10;;;;;;;18.06;54.14;97758.55;109473;1252;58592;-78
2023/04/13 09:47:01;;;;;;;6.40;5.10;;;;;;;18.15;53.65;97758.33;109376;1251;58274;-78
2023/04/13 09:49:38;;;;;;;8.90;4.80;;;;;;;18.18;53.46;97757.96;109517;1252;66466;-78
2023/04/13 09:52:08;;;;;;;8.10;6.80;;;;;;;18.20;53.22;97753.73;109508;1252;59847;-78
2023/04/13 09:54:35;;;;;;;6.60;4.60;;;;;;;18.18;53.23;97755.98;109257;1251;62898;-77
2023/04/13 09:57:03;;;;;;;5.10;4.00;;;;;;;18.03;53.08;97758.52;109450;1252;58206;-78
2023/04/13 09:59:31;;;;;;;6.90;5.10;;;;;;;17.91;53.37;97759.32;109490;1253;58279;-78
2023/04/13 10:01:58;;;;;;;6.40;5.10;;;;;;;17.84;53.66;97753.55;109492;1253;65245;-78
2023/04/13 10:04:25;;;;;;;9.10;4.70;;;;;;;17.80;53.59;97750.75;109509;1252;60158;-77
2023/04/13 10:06:52;;;;;;;5.50;4.30;;;;;;;17.84;54.23;97748.52;109505;1251;64035;-78
2023/04/13 10:09:20;;;;;;;11.40;10.30;;;;;;;18.06;54.51;97747.30;109494;1253;58157;-77
2023/04/13 10:11:50;;;;;;;6.70;5.50;;;;;;;18.26;52.91;97742.52;109445;1252;58836;-77
2023/04/13 10:14:21;;;;;;;7.20;5.10;;;;;;;18.30;53.11;97743.73;109377;1253;65431;-78
2023/04/13 10:17:06;;;;;;;10.90;8.00;;;;;;;18.33;53.06;97746.52;109531;1253;58744;-77
2023/04/13 10:19:40;;;;;;;9.80;5.20;;;;;;;18.43;53.99;97750.54;109543;1251;64133;-78
2023/04/13 10:22:07;;;;;;;5.70;4.60;;;;;;;18.70;54.29;97747.08;109188;1251;58185;-77
2023/04/13 10:24:33;;;;;;;8.10;6.80;;;;;;;19.01;54.27;97745.22;109496;1252;58222;-78
2023/04/13 10:27:10;;;;;;;5.90;4.90;;;;;;;19.26;53.48;97735.67;109489;1252;65223;-78
2023/04/13 10:29:36;;;;;;;12.20;4.80;;;;;;;19.39;52.38;97732.92;109476;1253;60156;-78
2023/04/13 10:32:04;;;;;;;7.50;4.90;;;;;;;19.50;52.07;97733.38;109476;1253;62526;-77
2023/04/13 10:34:38;;;;;;;7.30;4.90;;;;;;;19.70;50.99;97727.47;109361;1252;58193;-78
2023/04/13 10:37:15;;;;;;;6.40;3.80;;;;;;;19.88;50.83;97723.96;109285;1253;58260;-78
2023/04/13 10:39:41;;;;;;;4.80;3.70;;;;;;;20.10;50.89;97718.91;109508;1252;65278;-77
2023/04/13 10:42:09;;;;;;;5.60;4.00;;;;;;;20.32;49.89;97722.39;109529;1252;59174;-78
2023/04/13 10:44:43;;;;;;;5.00;4.50;;;;;;;20.65;50.39;97719.66;109534;1252;62802;-78
2023/04/13 10:47:11;;;;;;;6.80;5.20;;;;;;;20.97;50.42;97716.23;109322;1253;58188;-77
2023/04/13 10:49:37;;;;;;;5.30;4.60;;;;;;;21.10;49.83;97713.13;109535;1252;58117;-78
2023/04/13 10:52:04;;;;;;;5.60;4.00;;;;;;;21.09;49.24;97718.42;109537;1252;64044;-79
2023/04/13 10:54:33;;;;;;;6.10;5.00;;;;;;;20.93;47.97;97718.52;109564;1251;60271;-78
2023/04/13 10:57:02;;;;;;;7.20;5.30;;;;;;;20.71;47.14;97720.58;109511;1253;65047;-78
2023/04/13 10:59:55;;;;;;;6.20;4.40;;;;;;;20.56;47.85;97721.27;109534;1252;58460;-78
2023/04/13 11:02:24;;;;;;;5.90;5.30;;;;;;;20.67;48.36;97717.64;108940;1259;58148;-78
2023/04/13 11:04:51;;;;;;;6.50;5.80;;;;;;;20.74;48.60;97716.52;108865;1259;64135;-78
2023/04/13 11:07:22;;;;;;;6.90;6.20;;;;;;;20.76;48.69;97717.45;108962;1259;60194;-77
2023/04/13 11:09:52;;;;;;;7.10;5.30;;;;;;;20.87;48.83;97720.19;108835;1259;62890;-79
2023/04/13 11:12:18;;;;;;;5.50;4.70;;;;;;;21.13;48.73;97719.15;108929;1259;58288;-78
2023/04/13 11:14:46;;;;;;;6.20;4.10;;;;;;;21.37;48.63;97717.89;108758;1259;58217;-78
2023/04/13 11:17:15;;;;;;;5.00;4.50;;;;;;;21.60;48.62;97715.93;108838;1259;65665;-76